TimeEST,TemperatureF,Dew PointF,Humidity,Sea Level PressureIn,VisibilityMPH,Wind Direction,Wind SpeedMPH,Gust SpeedMPH,PrecipitationIn,Events,Conditions,WindDirDegrees,DateUTC
12:18 AM,21.2,12.2,68,29.85,10.0,West,10.4,16.1,N/A,,Scattered Clouds,260,2013-02-20 05:18:00
12:38 AM,21.2,12.2,68,29.86,10.0,West,12.7,16.1,N/A,,Scattered Clouds,270,2013-02-20 05:38:00
1:38 AM,21.2,14.0,74,29.87,7.0,West,9.2,19.6,N/A,,Overcast,270,2013-02-20 06:38:00
2:38 AM,21.2,12.2,68,29.89,10.0,West,11.5,17.3,N/A,,Overcast,260,2013-02-20 07:38:00
3:18 AM,21.2,10.4,63,29.89,10.0,West,12.7,23.0,N/A,,Overcast,280,2013-02-20 08:18:00
3:38 AM,21.2,10.4,63,29.90,10.0,WNW,10.4,24.2,N/A,Snow,Light Snow,290,2013-02-20 08:38:00
3:58 AM,19.4,14.0,80,29.92,2.5,West,12.7,21.9,N/A,Snow,Light Snow,270,2013-02-20 08:58:00
4:18 AM,19.4,12.2,74,29.92,10.0,WNW,11.5,20.7,N/A,,Overcast,290,2013-02-20 09:18:00
4:38 AM,19.4,8.6,63,29.93,10.0,West,12.7,19.6,N/A,,Overcast,280,2013-02-20 09:38:00
4:58 AM,19.4,6.8,58,29.94,10.0,West,11.5,18.4,N/A,,Overcast,280,2013-02-20 09:58:00
5:18 AM,19.4,6.8,58,29.94,10.0,West,10.4,16.1,N/A,,Overcast,280,2013-02-20 10:18:00
5:38 AM,19.4,6.8,58,29.95,10.0,West,12.7,19.6,N/A,,Overcast,270,2013-02-20 10:38:00
5:58 AM,19.4,6.8,58,29.96,10.0,West,9.2,21.9,N/A,,Overcast,280,2013-02-20 10:58:00
6:18 AM,19.4,8.6,63,29.97,10.0,West,6.9,19.6,N/A,,Overcast,270,2013-02-20 11:18:00
6:38 AM,19.4,8.6,63,29.97,10.0,West,9.2,16.1,N/A,,Overcast,280,2013-02-20 11:38:00
7:18 AM,19.4,10.4,68,29.98,10.0,West,10.4,18.4,N/A,,Overcast,280,2013-02-20 12:18:00
7:38 AM,19.4,10.4,68,29.99,10.0,West,9.2,16.1,N/A,,Overcast,280,2013-02-20 12:38:00
8:18 AM,19.4,10.4,68,30.01,10.0,West,5.8,19.6,N/A,,Overcast,280,2013-02-20 13:18:00
8:38 AM,19.4,10.4,68,30.02,10.0,West,11.5,17.3,N/A,,Overcast,280,2013-02-20 13:38:00
8:58 AM,19.4,10.4,68,30.02,7.0,West,9.2,16.1,N/A,,Overcast,280,2013-02-20 13:58:00
9:18 AM,19.4,14.0,80,30.02,1.0,WNW,12.7,19.6,N/A,Snow,Light Snow,290,2013-02-20 14:18:00
9:38 AM,19.4,14.0,80,30.02,1.8,West,8.1,-,N/A,Snow,Light Snow,280,2013-02-20 14:38:00
9:58 AM,19.4,10.4,68,30.03,5.0,WNW,13.8,24.2,N/A,Snow,Light Snow,290,2013-02-20 14:58:00
10:18 AM,19.4,12.2,74,30.04,2.0,WNW,15.0,23.0,N/A,Snow,Light Snow,300,2013-02-20 15:18:00
10:38 AM,19.4,10.4,68,30.04,7.0,WNW,18.4,24.2,N/A,Snow,Light Snow,300,2013-02-20 15:38:00
10:58 AM,19.4,14.0,80,30.05,0.5,WNW,15.0,20.7,N/A,Snow,Snow,290,2013-02-20 15:58:00
11:18 AM,21.2,12.2,68,30.05,10.0,NW,18.4,23.0,N/A,,Overcast,320,2013-02-20 16:18:00
11:38 AM,21.2,10.4,63,30.05,10.0,NW,12.7,21.9,N/A,,Overcast,310,2013-02-20 16:38:00
11:58 AM,21.2,10.4,63,30.06,10.0,WNW,17.3,-,N/A,,Overcast,300,2013-02-20 16:58:00
12:18 PM,21.2,8.6,58,30.07,10.0,NW,13.8,23.0,N/A,,Overcast,310,2013-02-20 17:18:00
12:38 PM,21.2,10.4,63,30.07,10.0,NW,15.0,21.9,N/A,,Overcast,310,2013-02-20 17:38:00
12:58 PM,23.0,8.6,54,30.07,10.0,WNW,12.7,20.7,N/A,,Overcast,290,2013-02-20 17:58:00
1:18 PM,21.2,10.4,63,30.08,10.0,WNW,16.1,23.0,N/A,,Overcast,300,2013-02-20 18:18:00
1:38 PM,23.0,10.4,59,30.09,10.0,NW,12.7,18.4,N/A,,Overcast,310,2013-02-20 18:38:00
1:58 PM,23.0,10.4,59,30.09,10.0,WNW,17.3,21.9,N/A,,Overcast,300,2013-02-20 18:58:00
2:18 PM,23.0,10.4,59,30.10,10.0,WNW,13.8,21.9,N/A,,Overcast,290,2013-02-20 19:18:00
2:38 PM,23.0,10.4,59,30.10,10.0,WNW,11.5,-,N/A,,Overcast,290,2013-02-20 19:38:00
2:58 PM,23.0,10.4,59,30.10,10.0,WNW,11.5,18.4,N/A,,Overcast,290,2013-02-20 19:58:00
3:18 PM,23.0,10.4,59,30.11,10.0,WNW,8.1,-,N/A,,Overcast,300,2013-02-20 20:18:00
3:38 PM,23.0,10.4,59,30.11,10.0,WNW,11.5,20.7,N/A,,Overcast,290,2013-02-20 20:38:00
3:58 PM,23.0,10.4,59,30.11,10.0,WNW,10.4,16.1,N/A,,Overcast,300,2013-02-20 20:58:00
4:18 PM,23.0,10.4,59,30.13,10.0,WNW,8.1,-,N/A,,Overcast,290,2013-02-20 21:18:00
5:18 PM,23.0,12.2,63,30.15,10.0,West,9.2,-,N/A,,Overcast,280,2013-02-20 22:18:00
6:58 PM,23.0,12.2,63,30.17,10.0,WNW,9.2,-,N/A,,Overcast,300,2013-02-20 23:58:00
7:18 PM,23.0,12.2,63,30.16,10.0,WNW,12.7,21.9,N/A,,Overcast,290,2013-02-21 00:18:00
9:38 PM,21.2,12.2,68,30.18,10.0,NW,11.5,20.7,N/A,Snow,Light Snow,310,2013-02-21 02:38:00
11:58 PM,19.4,12.2,74,30.20,5.0,NNW,5.8,-,N/A,Snow,Light Snow,340,2013-02-21 04:58:00